Time;durP1;ratioP1;P1;durP2;ratioP2;P2;SDS_P1;SDS_P2;PMS_P1;PMS_P2;Temp;Humidity;BMP_temperature;BMP_pressure;BME280_temperature;BME280_humidity;BME280_pressure;Samples;Min_cycle;Max_cycle;Signal;HPM_P1;HPM_P2
2023/09/18 00:00:11;;;;;;;38.88;29.13;;;17.80;99.90;;;;;;5013915;28;20076;-74
2023/09/18 00:02:36;;;;;;;37.25;28.90;;;17.80;99.90;;;;;;5032094;28;20041;-74
2023/09/18 00:05:02;;;;;;;37.63;28.75;;;17.90;99.90;;;;;;4997924;28;20087;-74
2023/09/18 00:07:28;;;;;;;41.45;30.65;;;17.90;99.90;;;;;;5014131;28;20041;-74
2023/09/18 00:09:53;;;;;;;41.63;30.67;;;17.90;99.90;;;;;;5013877;28;20037;-74
2023/09/18 00:12:19;;;;;;;48.45;32.50;;;17.90;99.90;;;;;;5031646;28;20046;-74
2023/09/18 00:14:49;;;;;;;40.33;31.23;;;17.80;99.90;;;;;;5014046;28;20049;-74
2023/09/18 00:17:15;;;;;;;47.95;34.40;;;17.90;99.90;;;;;;5031912;28;20100;-74
2023/09/18 00:19:40;;;;;;;43.28;32.70;;;17.80;99.90;;;;;;5031528;28;20045;-74
2023/09/18 00:22:06;;;;;;;44.67;31.40;;;17.80;99.90;;;;;;5031692;28;20460;-73
2023/09/18 00:24:31;;;;;;;52.50;35.70;;;17.80;99.90;;;;;;5013894;28;20382;-74
2023/09/18 00:26:57;;;;;;;41.78;33.22;;;17.90;99.90;;;;;;5014010;28;20437;-74
2023/09/18 00:29:23;;;;;;;42.88;32.58;;;17.90;99.90;;;;;;5034575;28;20407;-74
2023/09/18 00:31:48;;;;;;;42.88;32.13;;;17.80;99.90;;;;;;5020232;28;20041;-74
2023/09/18 00:34:14;;;;;;;43.75;32.22;;;17.90;99.90;;;;;;5038250;28;20037;-73
2023/09/18 00:36:39;;;;;;;46.15;33.42;;;17.80;99.90;;;;;;5038247;28;20037;-73
2023/09/18 00:39:05;;;;;;;44.67;32.10;;;17.80;99.90;;;;;;5037835;28;20120;-74
2023/09/18 00:41:30;;;;;;;46.03;32.80;;;17.80;99.90;;;;;;5037990;28;20578;-74
2023/09/18 00:43:56;;;;;;;45.80;34.80;;;17.80;99.90;;;;;;5038304;28;20564;-74
2023/09/18 00:46:22;;;;;;;45.47;34.60;;;17.80;99.90;;;;;;5037989;28;20038;-74
2023/09/18 00:48:49;;;;;;;46.33;34.60;;;17.70;99.90;;;;;;5020243;28;20733;-73
2023/09/18 00:51:16;;;;;;;51.22;36.03;;;17.80;99.90;;;;;;5038048;28;20053;-73
2023/09/18 00:53:48;;;;;;;48.55;35.15;;;17.70;99.90;;;;;;5020186;28;20045;-74
2023/09/18 00:56:14;;;;;;;49.00;35.30;;;17.70;99.90;;;;;;5037965;28;20505;-74
2023/09/18 00:58:40;;;;;;;43.28;32.88;;;17.70;99.90;;;;;;5037630;28;20029;-74
2023/09/18 01:01:06;;;;;;;45.88;34.75;;;17.70;99.90;;;;;;5020300;28;20037;-74
2023/09/18 01:03:31;;;;;;;45.80;33.40;;;17.80;99.90;;;;;;5037992;28;20420;-74
2023/09/18 01:05:57;;;;;;;45.05;32.05;;;17.70;99.90;;;;;;5020060;28;20453;-74
2023/09/18 01:08:23;;;;;;;44.55;33.47;;;17.70;99.90;;;;;;5037783;28;20045;-74
2023/09/18 01:11:17;;;;;;;44.42;34.38;;;17.80;99.90;;;;;;5019825;28;20042;-74
2023/09/18 01:13:59;;;;;;;45.22;32.33;;;17.80;99.90;;;;;;5024423;28;20467;-74
2023/09/18 01:16:43;;;;;;;44.75;32.33;;;17.70;99.90;;;;;;5020153;28;20051;-74
2023/09/18 01:19:09;;;;;;;45.05;32.15;;;17.80;99.90;;;;;;5037424;28;20497;-74
2023/09/18 01:21:35;;;;;;;44.55;33.00;;;17.80;99.90;;;;;;5019932;28;20049;-74
2023/09/18 01:24:00;;;;;;;40.83;30.92;;;17.80;99.90;;;;;;5020062;28;20038;-73
2023/09/18 01:26:26;;;;;;;45.20;32.20;;;17.90;99.90;;;;;;5037773;28;20041;-74
2023/09/18 01:28:51;;;;;;;41.42;33.05;;;17.80;99.90;;;;;;5019932;28;20042;-74
2023/09/18 01:31:17;;;;;;;45.70;32.47;;;17.80;99.90;;;;;;5019807;28;20041;-74
2023/09/18 01:33:45;;;;;;;42.65;32.05;;;17.80;99.90;;;;;;5051872;22;20587;-68
2023/09/18 01:36:11;;;;;;;43.30;29.38;;;17.80;99.90;;;;;;5037887;28;20046;-68
2023/09/18 01:38:38;;;;;;;39.97;29.27;;;17.70;99.90;;;;;;5037495;28;20099;-69
2023/09/18 01:41:03;;;;;;;45.05;30.83;;;17.70;99.90;;;;;;5032479;28;20037;-68
2023/09/18 01:43:30;;;;;;;43.63;30.00;;;17.70;99.90;;;;;;5034474;28;20064;-69
2023/09/18 01:45:56;;;;;;;37.78;28.48;;;17.80;99.90;;;;;;5034358;28;20042;-69
2023/09/18 01:48:21;;;;;;;37.90;28.45;;;17.80;99.90;;;;;;5034274;28;20043;-69
2023/09/18 01:50:47;;;;;;;41.83;28.88;;;17.80;99.90;;;;;;5034213;28;20504;-69
2023/09/18 01:53:13;;;;;;;41.65;29.30;;;17.80;99.90;;;;;;5034449;28;20083;-69
2023/09/18 01:55:39;;;;;;;41.28;28.88;;;17.70;99.90;;;;;;5034201;28;20034;-69
2023/09/18 01:58:04;;;;;;;39.75;30.27;;;17.80;99.90;;;;;;5034269;28;20110;-69
2023/09/18 02:00:30;;;;;;;37.10;28.15;;;17.80;99.90;;;;;;5033707;28;20073;-69
2023/09/18 02:02:56;;;;;;;37.03;27.92;;;17.70;99.90;;;;;;5034019;28;20072;-69
2023/09/18 02:05:22;;;;;;;43.15;30.67;;;17.70;99.90;;;;;;5016327;28;20049;-69
2023/09/18 02:07:47;;;;;;;39.28;29.35;;;17.70;99.90;;;;;;5033794;28;20069;-69
2023/09/18 02:10:13;;;;;;;44.10;29.40;;;17.80;99.90;;;;;;5033442;28;20034;-69
2023/09/18 02:12:39;;;;;;;39.65;28.85;;;17.70;99.90;;;;;;5033539;28;20033;-69
2023/09/18 02:15:06;;;;;;;37.58;28.83;;;17.80;99.90;;;;;;5032643;28;20463;-69
2023/09/18 02:17:32;;;;;;;43.65;29.90;;;17.70;99.90;;;;;;5033709;28;20044;-69
2023/09/18 02:19:59;;;;;;;38.33;29.70;;;17.70;99.90;;;;;;5033454;28;20041;-70
2023/09/18 02:22:25;;;;;;;38.72;28.67;;;17.60;99.90;;;;;;5033517;28;20068;-69
2023/09/18 02:24:50;;;;;;;37.15;28.83;;;17.70;99.90;;;;;;5032389;28;20483;-68
2023/09/18 02:27:18;;;;;;;34.97;28.40;;;17.60;99.90;;;;;;5033574;28;20034;-68
2023/09/18 02:29:44;;;;;;;37.38;28.48;;;17.70;99.90;;;;;;5033319;28;20456;-68
2023/09/18 02:32:10;;;;;;;34.30;28.40;;;17.70;99.90;;;;;;5033258;28;20038;-68
2023/09/18 02:34:35;;;;;;;39.38;28.33;;;17.70;99.90;;;;;;5033747;28;20050;-68
2023/09/18 02:37:01;;;;;;;36.30;27.63;;;17.80;99.90;;;;;;5033800;28;20034;-69
2023/09/18 02:39:26;;;;;;;36.65;27.17;;;17.80;99.90;;;;;;5033412;28;20638;-68
2023/09/18 02:41:52;;;;;;;34.97;28.45;;;17.80;99.90;;;;;;5033470;28;20037;-68
2023/09/18 02:44:17;;;;;;;35.00;27.98;;;17.90;99.90;;;;;;5033478;28;20037;-68
2023/09/18 02:46:43;;;;;;;38.10;28.63;;;17.90;99.90;;;;;;5033459;28;20489;-68
2023/09/18 02:49:09;;;;;;;34.33;27.00;;;17.90;99.90;;;;;;5033392;28;20033;-68
2023/09/18 02:51:34;;;;;;;36.05;27.17;;;17.90;99.90;;;;;;5033293;28;20080;-68
2023/09/18 02:54:00;;;;;;;32.15;26.10;;;17.90;99.90;;;;;;5033534;28;20047;-68
2023/09/18 02:56:25;;;;;;;34.28;26.25;;;17.80;99.90;;;;;;5032988;28;20096;-68
2023/09/18 02:58:51;;;;;;;29.60;25.85;;;17.90;99.90;;;;;;5032318;28;20041;-68
2023/09/18 03:01:17;;;;;;;33.97;26.02;;;17.90;99.90;;;;;;5032954;28;20041;-68
2023/09/18 03:03:43;;;;;;;35.92;25.83;;;17.80;99.90;;;;;;5032736;28;20041;-68
2023/09/18 03:06:08;;;;;;;32.60;25.08;;;17.80;99.90;;;;;;5032922;28;20052;-68
2023/09/18 03:08:35;;;;;;;32.95;25.90;;;17.80;99.90;;;;;;5032716;28;20398;-68
2023/09/18 03:11:00;;;;;;;33.03;25.25;;;17.80;99.90;;;;;;5032948;28;20124;-68
2023/09/18 03:13:27;;;;;;;33.00;24.45;;;17.80;99.90;;;;;;5032648;28;20111;-68
2023/09/18 03:15:53;;;;;;;33.08;24.20;;;17.80;99.90;;;;;;5032628;28;20507;-69
2023/09/18 03:18:19;;;;;;;32.83;24.77;;;17.80;99.90;;;;;;5031046;28;20049;-68
2023/09/18 03:20:45;;;;;;;28.85;24.77;;;17.80;99.90;;;;;;5032460;28;20049;-68
2023/09/18 03:23:11;;;;;;;34.40;24.27;;;17.80;99.90;;;;;;5031578;28;20045;-69
2023/09/18 03:25:39;;;;;;;31.73;24.20;;;17.80;99.90;;;;;;5032825;28;20046;-69
2023/09/18 03:28:05;;;;;;;29.10;23.23;;;17.80;99.90;;;;;;5032732;28;20049;-68
2023/09/18 03:30:31;;;;;;;32.95;21.70;;;17.80;99.90;;;;;;5032216;28;20185;-68
2023/09/18 03:32:57;;;;;;;28.90;23.25;;;17.80;99.90;;;;;;5032311;28;20037;-68
2023/09/18 03:35:23;;;;;;;33.20;24.33;;;17.70;99.90;;;;;;5032605;28;20091;-68
2023/09/18 03:37:51;;;;;;;32.35;22.60;;;17.80;99.90;;;;;;5032517;28;20393;-68
2023/09/18 03:40:18;;;;;;;30.58;22.95;;;17.70;99.90;;;;;;5032122;28;20046;-68
2023/09/18 03:42:45;;;;;;;33.67;23.98;;;17.70;99.90;;;;;;5032251;28;20095;-68
2023/09/18 03:45:10;;;;;;;30.67;23.63;;;17.70;99.90;;;;;;5032111;28;20041;-69
2023/09/18 03:47:39;;;;;;;34.75;21.92;;;17.60;99.90;;;;;;5032468;28;20095;-68
2023/09/18 03:50:08;;;;;;;32.45;23.92;;;17.70;99.90;;;;;;5030777;28;20029;-68
2023/09/18 03:52:34;;;;;;;32.75;24.20;;;17.70;99.90;;;;;;5032164;28;20037;-68
2023/09/18 03:55:00;;;;;;;34.40;23.70;;;17.70;99.90;;;;;;5032039;28;20041;-68
2023/09/18 03:57:26;;;;;;;32.95;23.45;;;17.60;99.90;;;;;;5031642;28;20037;-69
2023/09/18 03:59:51;;;;;;;30.52;22.58;;;17.60;99.90;;;;;;5030198;28;20510;-68
2023/09/18 04:02:17;;;;;;;29.27;22.48;;;17.70;99.90;;;;;;5032023;28;20029;-68
2023/09/18 04:04:42;;;;;;;26.27;20.65;;;17.70;99.90;;;;;;5031454;28;20478;-68
2023/09/18 04:07:09;;;;;;;26.58;21.23;;;17.70;99.90;;;;;;5031891;28;20041;-68
2023/09/18 04:09:34;;;;;;;30.15;21.35;;;17.70;99.90;;;;;;5031666;28;20046;-69
2023/09/18 04:12:07;;;;;;;25.63;19.63;;;17.70;99.90;;;;;;5031779;28;20044;-68
2023/09/18 04:14:32;;;;;;;28.37;21.53;;;17.70;99.90;;;;;;5031852;28;20042;-68
2023/09/18 04:17:00;;;;;;;28.58;20.85;;;17.80;99.90;;;;;;5030567;28;20046;-68
2023/09/18 04:19:26;;;;;;;26.42;20.63;;;17.80;99.90;;;;;;5030169;28;20048;-68
2023/09/18 04:21:51;;;;;;;28.70;21.20;;;17.80;99.90;;;;;;5031786;28;20037;-68
2023/09/18 04:24:17;;;;;;;33.05;21.20;;;17.90;99.90;;;;;;5031596;28;20105;-68
2023/09/18 04:26:42;;;;;;;29.60;20.77;;;17.80;99.90;;;;;;5031480;28;20081;-68
2023/09/18 04:29:08;;;;;;;26.83;20.55;;;17.80;99.90;;;;;;5031515;28;20038;-68
2023/09/18 04:31:34;;;;;;;26.95;19.17;;;17.80;99.90;;;;;;5031869;28;20191;-68
2023/09/18 04:33:59;;;;;;;25.90;18.85;;;17.90;99.90;;;;;;5031623;28;20538;-68
2023/09/18 04:36:25;;;;;;;26.73;20.20;;;17.80;99.90;;;;;;5032005;28;20042;-68
2023/09/18 04:38:51;;;;;;;25.63;20.42;;;17.90;99.90;;;;;;5031640;28;20052;-68
2023/09/18 04:41:17;;;;;;;28.50;19.95;;;17.90;99.90;;;;;;5030612;28;20172;-68
2023/09/18 04:43:43;;;;;;;29.45;19.50;;;17.80;99.90;;;;;;5031429;28;20041;-68
2023/09/18 04:46:08;;;;;;;32.60;20.15;;;17.80;99.90;;;;;;5031840;28;20052;-68
2023/09/18 04:48:34;;;;;;;26.90;20.48;;;17.80;99.90;;;;;;5031488;28;20045;-68
2023/09/18 04:51:00;;;;;;;36.03;20.58;;;17.90;99.90;;;;;;5031833;28;20409;-68
2023/09/18 04:53:29;;;;;;;27.23;19.42;;;17.90;99.90;;;;;;5031419;28;20037;-68
2023/09/18 04:55:55;;;;;;;27.08;18.75;;;18.00;99.90;;;;;;5031580;28;20041;-68
2023/09/18 04:58:21;;;;;;;25.42;18.90;;;18.00;99.90;;;;;;5031124;28;20039;-68
2023/09/18 05:00:53;;;;;;;24.92;19.13;;;18.00;99.90;;;;;;5029950;28;20052;-68
2023/09/18 05:03:19;;;;;;;23.02;17.67;;;18.00;99.90;;;;;;5031239;28;20046;-68
2023/09/18 05:05:44;;;;;;;28.00;17.77;;;18.00;99.90;;;;;;5029119;28;20044;-68
2023/09/18 05:08:10;;;;;;;23.52;18.10;;;18.10;99.90;;;;;;5029412;28;20041;-69
2023/09/18 05:10:36;;;;;;;23.20;18.40;;;18.10;99.90;;;;;;5030300;28;20507;-69
2023/09/18 05:13:02;;;;;;;22.35;17.98;;;18.10;99.90;;;;;;5030211;28;20051;-69
2023/09/18 05:15:29;;;;;;;20.42;17.58;;;18.10;99.90;;;;;;5031347;28;20229;-69
2023/09/18 05:17:57;;;;;;;22.23;16.67;;;18.20;99.90;;;;;;5033986;28;20037;-69
2023/09/18 05:20:24;;;;;;;24.17;16.27;;;18.20;99.90;;;;;;5034686;28;20052;-70
2023/09/18 05:22:54;;;;;;;19.42;15.77;;;18.20;99.90;;;;;;5034709;28;20041;-70
2023/09/18 05:25:21;;;;;;;18.95;15.73;;;18.20;99.90;;;;;;5034802;28;20033;-69
2023/09/18 05:27:56;;;;;;;21.08;16.77;;;18.20;99.90;;;;;;5034879;28;20048;-69
2023/09/18 05:30:30;;;;;;;20.73;15.93;;;18.20;99.90;;;;;;5033255;28;20480;-69
2023/09/18 05:32:57;;;;;;;23.63;17.15;;;18.20;99.90;;;;;;5034288;28;20033;-69
2023/09/18 05:35:23;;;;;;;19.60;15.50;;;18.20;99.90;;;;;;5033970;28;20033;-69
2023/09/18 05:37:51;;;;;;;20.30;15.68;;;18.20;99.90;;;;;;5032862;28;20053;-69
2023/09/18 05:40:17;;;;;;;18.58;14.80;;;18.20;99.90;;;;;;5034184;28;20037;-68
2023/09/18 05:42:43;;;;;;;19.38;14.30;;;18.30;99.90;;;;;;5034517;28;20108;-69
2023/09/18 05:45:10;;;;;;;18.20;14.68;;;18.20;99.90;;;;;;5034528;28;20045;-69
2023/09/18 05:47:37;;;;;;;20.70;13.68;;;18.30;99.90;;;;;;5033449;28;20064;-69
2023/09/18 05:50:04;;;;;;;18.10;14.48;;;18.30;99.90;;;;;;5033984;28;20041;-69
2023/09/18 05:52:30;;;;;;;21.35;15.23;;;18.30;99.90;;;;;;5033993;28;20044;-69
2023/09/18 05:54:55;;;;;;;20.92;13.93;;;18.40;99.90;;;;;;5033031;28;20116;-70
2023/09/18 05:57:21;;;;;;;20.80;14.95;;;18.40;99.90;;;;;;5034059;28;20045;-71
2023/09/18 05:59:46;;;;;;;19.60;13.73;;;18.40;99.90;;;;;;5032565;28;20041;-70
2023/09/18 06:02:12;;;;;;;17.98;14.85;;;18.40;99.90;;;;;;5032943;28;20436;-70
2023/09/18 06:04:38;;;;;;;17.95;13.70;;;18.40;99.90;;;;;;5032838;28;20052;-70
2023/09/18 06:07:03;;;;;;;21.00;15.25;;;18.40;99.90;;;;;;5032682;28;20041;-70
2023/09/18 06:09:29;;;;;;;16.60;13.55;;;18.40;99.90;;;;;;5033803;28;20037;-70
2023/09/18 06:11:55;;;;;;;19.50;14.82;;;18.40;99.90;;;;;;5032654;28;20416;-70
2023/09/18 06:14:20;;;;;;;24.27;15.07;;;18.30;99.90;;;;;;5032977;28;20124;-70
2023/09/18 06:16:46;;;;;;;19.70;15.15;;;18.30;99.90;;;;;;5032696;28;20044;-70
2023/09/18 06:19:12;;;;;;;18.73;15.00;;;18.30;99.90;;;;;;5033588;28;20120;-70
2023/09/18 06:21:37;;;;;;;18.48;14.82;;;18.30;99.90;;;;;;5032492;28;20049;-70
2023/09/18 06:24:03;;;;;;;20.00;14.48;;;18.30;99.90;;;;;;5032441;28;20045;-70
2023/09/18 06:26:29;;;;;;;18.55;15.60;;;18.30;99.90;;;;;;5032032;28;20045;-70
2023/09/18 06:28:54;;;;;;;20.55;14.75;;;18.30;99.90;;;;;;5033439;28;20034;-70
2023/09/18 06:31:20;;;;;;;20.45;15.40;;;18.30;99.90;;;;;;5033679;28;20044;-71
2023/09/18 06:33:46;;;;;;;19.40;14.93;;;18.20;99.90;;;;;;5033403;28;20037;-70
2023/09/18 06:36:13;;;;;;;17.30;13.98;;;18.30;99.90;;;;;;5015984;28;20460;-70
2023/09/18 06:38:39;;;;;;;19.30;13.65;;;18.20;99.90;;;;;;5033184;28;20124;-70
2023/09/18 06:41:04;;;;;;;18.33;14.02;;;18.30;99.90;;;;;;5033630;28;20470;-70
2023/09/18 06:43:30;;;;;;;18.63;13.18;;;18.20;99.90;;;;;;5033479;28;20041;-70
2023/09/18 06:45:57;;;;;;;17.40;12.35;;;18.30;99.90;;;;;;5033393;28;20483;-71
2023/09/18 06:48:24;;;;;;;15.65;11.30;;;18.30;99.90;;;;;;5033310;28;20041;-70
2023/09/18 06:50:49;;;;;;;20.05;11.82;;;18.30;99.90;;;;;;5033463;28;20084;-70
2023/09/18 06:53:15;;;;;;;19.58;12.70;;;18.40;99.90;;;;;;5033471;28;20041;-70
2023/09/18 06:55:41;;;;;;;16.27;11.88;;;18.30;99.90;;;;;;5033486;28;20069;-70
2023/09/18 06:58:06;;;;;;;17.42;12.10;;;18.30;99.90;;;;;;5033232;28;20042;-70
2023/09/18 07:00:32;;;;;;;21.88;13.40;;;18.30;99.90;;;;;;5032941;28;20412;-70
2023/09/18 07:02:57;;;;;;;18.40;12.15;;;18.30;99.90;;;;;;5031270;28;20169;-70
2023/09/18 07:05:23;;;;;;;19.33;12.43;;;18.30;99.90;;;;;;5032494;28;20037;-70
2023/09/18 07:07:49;;;;;;;17.27;11.60;;;18.30;99.90;;;;;;5031767;28;20040;-70
2023/09/18 07:10:14;;;;;;;16.05;11.52;;;18.30;99.90;;;;;;5032469;28;20030;-71
2023/09/18 07:12:40;;;;;;;18.52;10.98;;;18.30;99.90;;;;;;5032628;28;20381;-70
2023/09/18 07:15:06;;;;;;;19.08;12.75;;;18.30;99.90;;;;;;5032802;28;20444;-70
2023/09/18 07:17:32;;;;;;;20.85;12.52;;;18.30;99.90;;;;;;5031273;28;20137;-70
2023/09/18 07:19:59;;;;;;;25.05;13.20;;;18.30;99.90;;;;;;5032322;28;20539;-70
2023/09/18 07:22:24;;;;;;;21.13;12.68;;;18.40;99.90;;;;;;5032563;28;20045;-70
2023/09/18 07:24:50;;;;;;;27.65;13.75;;;18.30;99.90;;;;;;5032614;28;20041;-70
2023/09/18 07:27:15;;;;;;;23.95;13.88;;;18.30;99.90;;;;;;5031357;28;20045;-71
2023/09/18 07:29:41;;;;;;;21.48;14.10;;;18.30;99.90;;;;;;5031023;28;20033;-71
2023/09/18 07:34:42;;;;;;;24.10;16.15;;;18.40;99.90;;;;;;5011332;28;20437;-73
2023/09/18 07:37:08;;;;;;;22.52;14.20;;;18.30;99.90;;;;;;5011428;28;20050;-74
2023/09/18 07:39:33;;;;;;;22.83;13.55;;;18.30;99.90;;;;;;4993643;28;20038;-73
2023/09/18 07:41:59;;;;;;;21.48;13.68;;;18.40;99.90;;;;;;5012400;28;20124;-73
2023/09/18 07:44:24;;;;;;;23.08;14.13;;;18.30;99.90;;;;;;5011518;28;20081;-75
2023/09/18 07:46:50;;;;;;;18.80;13.32;;;18.30;99.90;;;;;;4994857;28;20426;-74
2023/09/18 07:49:15;;;;;;;18.83;13.82;;;18.40;99.90;;;;;;5012170;28;20044;-74
2023/09/18 07:51:41;;;;;;;21.35;13.15;;;18.30;99.90;;;;;;5012417;28;20045;-74
2023/09/18 07:54:07;;;;;;;18.02;13.48;;;18.40;99.90;;;;;;4995041;28;20042;-74
2023/09/18 07:56:34;;;;;;;19.42;12.82;;;18.40;99.90;;;;;;5012442;28;20408;-73
2023/09/18 07:59:00;;;;;;;22.65;13.02;;;18.30;99.90;;;;;;5012110;28;20096;-74
2023/09/18 08:01:25;;;;;;;14.05;11.80;;;18.40;99.90;;;;;;4994640;28;20045;-74
2023/09/18 08:03:51;;;;;;;19.80;13.80;;;18.30;99.90;;;;;;5012158;28;20037;-74
2023/09/18 08:06:19;;;;;;;13.13;10.98;;;18.30;99.90;;;;;;5012034;28;20085;-74
2023/09/18 08:08:45;;;;;;;16.98;13.23;;;18.40;99.90;;;;;;5012041;28;20042;-73
2023/09/18 08:11:11;;;;;;;14.88;11.32;;;18.40;99.90;;;;;;4994589;28;20072;-74
2023/09/18 08:13:37;;;;;;;15.20;11.48;;;18.50;99.90;;;;;;5012066;28;20117;-73
2023/09/18 08:16:05;;;;;;;14.38;11.60;;;18.40;99.90;;;;;;4994710;28;20041;-73
2023/09/18 08:18:31;;;;;;;13.65;11.52;;;18.50;99.90;;;;;;5011735;28;20045;-73
2023/09/18 08:20:58;;;;;;;14.82;11.68;;;18.50;99.90;;;;;;5012116;28;20092;-74
2023/09/18 08:23:24;;;;;;;15.80;12.05;;;18.40;99.90;;;;;;4994546;28;20050;-74
2023/09/18 08:25:51;;;;;;;16.15;12.68;;;18.50;99.90;;;;;;5012128;28;20081;-74
2023/09/18 08:28:17;;;;;;;13.27;10.68;;;18.50;99.90;;;;;;4994586;28;20111;-74
2023/09/18 08:30:47;;;;;;;17.08;12.30;;;18.50;99.90;;;;;;4994449;28;20057;-74
2023/09/18 08:33:13;;;;;;;14.63;11.82;;;18.50;99.90;;;;;;4978176;28;20046;-74
2023/09/18 08:35:39;;;;;;;15.82;11.82;;;18.50;99.90;;;;;;5011802;28;20493;-74
2023/09/18 08:38:05;;;;;;;14.00;11.88;;;18.50;99.90;;;;;;4994305;28;20100;-74
2023/09/18 08:40:33;;;;;;;16.52;12.48;;;18.50;99.90;;;;;;5011687;28;20045;-74
2023/09/18 08:43:03;;;;;;;13.68;11.30;;;18.50;99.90;;;;;;4994133;28;20494;-74
2023/09/18 08:45:46;;;;;;;12.77;11.07;;;18.50;99.90;;;;;;4994253;28;20042;-74
2023/09/18 08:48:11;;;;;;;15.00;11.18;;;18.60;99.90;;;;;;4994233;28;20045;-74
2023/09/18 08:50:39;;;;;;;15.20;11.27;;;18.60;99.90;;;;;;4996253;28;20053;-74
2023/09/18 08:53:05;;;;;;;11.38;10.10;;;18.50;99.90;;;;;;4998104;28;20050;-74
2023/09/18 08:55:32;;;;;;;15.40;11.05;;;18.70;99.90;;;;;;4998074;28;20088;-74
2023/09/18 08:57:59;;;;;;;14.35;11.75;;;18.70;99.90;;;;;;4997976;28;20048;-74
2023/09/18 09:00:26;;;;;;;14.98;12.20;;;18.70;99.90;;;;;;4997844;28;20038;-74
2023/09/18 09:02:54;;;;;;;15.65;11.45;;;18.70;99.90;;;;;;5015589;28;20046;-74
2023/09/18 09:05:23;;;;;;;14.02;11.00;;;18.70;99.90;;;;;;4997842;28;20049;-74
2023/09/18 09:07:50;;;;;;;14.20;11.30;;;18.80;99.90;;;;;;4997865;28;20049;-74
2023/09/18 09:10:16;;;;;;;18.00;11.68;;;18.90;99.90;;;;;;4997550;28;20077;-74
2023/09/18 09:13:01;;;;;;;16.25;11.80;;;18.90;99.90;;;;;;5015245;28;20073;-74
2023/09/18 09:15:45;;;;;;;14.10;11.55;;;18.90;99.90;;;;;;4998061;28;20046;-74
2023/09/18 09:18:12;;;;;;;14.95;12.68;;;18.80;99.90;;;;;;4997598;28;20041;-72
2023/09/18 09:20:37;;;;;;;18.98;12.90;;;18.90;99.90;;;;;;5014905;28;20417;-73
2023/09/18 09:23:06;;;;;;;18.00;12.90;;;18.90;99.90;;;;;;4997525;28;20057;-73
2023/09/18 09:25:33;;;;;;;19.05;11.98;;;18.90;99.90;;;;;;5015222;28;20038;-73
2023/09/18 09:28:06;;;;;;;21.05;14.07;;;18.90;99.90;;;;;;4997478;28;20065;-73
2023/09/18 09:30:32;;;;;;;;;;;18.90;99.90;;;;;;5015274;28;20072;-73
2023/09/18 09:32:59;;;;;;;18.42;14.00;;;18.90;99.90;;;;;;5014586;28;19971;-73
2023/09/18 09:35:27;;;;;;;17.73;14.45;;;19.00;99.90;;;;;;4997234;28;20406;-73
2023/09/18 09:37:58;;;;;;;19.75;14.80;;;18.90;99.90;;;;;;5014849;28;20045;-73
2023/09/18 09:40:25;;;;;;;21.48;16.38;;;18.90;99.90;;;;;;4997054;28;20068;-73
2023/09/18 09:42:53;;;;;;;19.35;14.63;;;19.00;99.90;;;;;;5014789;28;20042;-73
2023/09/18 09:45:19;;;;;;;21.52;15.38;;;19.00;99.90;;;;;;5014627;28;20177;-73
2023/09/18 09:47:45;;;;;;;22.17;16.27;;;19.10;99.90;;;;;;4997277;28;20070;-73
2023/09/18 09:50:15;;;;;;;23.15;16.15;;;19.20;99.90;;;;;;4996842;28;20088;-73
2023/09/18 09:52:43;;;;;;;23.10;17.30;;;19.20;99.90;;;;;;4997014;28;20497;-73
2023/09/18 09:55:18;;;;;;;22.42;17.33;;;19.30;99.90;;;;;;4996994;28;20044;-73
2023/09/18 09:57:48;;;;;;;22.75;17.38;;;19.30;99.90;;;;;;5014482;28;20104;-73
2023/09/18 10:00:27;;;;;;;25.00;18.08;;;19.40;99.90;;;;;;5014114;28;20042;-73
2023/09/18 10:03:00;;;;;;;26.38;18.73;;;19.40;99.90;;;;;;4991508;28;20053;-73
2023/09/18 10:05:34;;;;;;;27.30;20.17;;;19.40;99.90;;;;;;5004802;28;20425;-73
2023/09/18 10:08:04;;;;;;;28.40;19.33;;;19.50;99.90;;;;;;5009137;28;20037;-73
2023/09/18 10:10:33;;;;;;;25.45;19.25;;;19.60;99.90;;;;;;5002551;28;20035;-73
2023/09/18 10:13:04;;;;;;;27.63;19.98;;;19.50;99.90;;;;;;4977200;28;20105;-73
2023/09/18 10:15:33;;;;;;;30.50;20.95;;;19.80;99.90;;;;;;4994800;28;20045;-73
2023/09/18 10:18:01;;;;;;;29.52;20.73;;;19.70;99.90;;;;;;4994518;28;20478;-73
2023/09/18 10:20:29;;;;;;;27.92;20.98;;;19.80;99.90;;;;;;4976864;28;20042;-73
2023/09/18 10:23:00;;;;;;;26.10;20.20;;;19.90;99.90;;;;;;4994851;28;20053;-74
2023/09/18 10:25:31;;;;;;;24.85;20.92;;;19.90;99.90;;;;;;4961890;28;20093;-76
2023/09/18 10:28:01;;;;;;;29.08;19.83;;;20.00;99.90;;;;;;4978258;28;20038;-77
2023/09/18 10:30:29;;;;;;;24.55;18.17;;;19.90;99.90;;;;;;4996020;28;20118;-77
2023/09/18 10:32:57;;;;;;;28.92;20.13;;;20.10;99.90;;;;;;5012726;28;20042;-78
2023/09/18 10:35:23;;;;;;;27.25;20.13;;;20.20;99.90;;;;;;5001186;28;20038;-78
2023/09/18 10:37:53;;;;;;;28.08;20.52;;;20.30;99.90;;;;;;5006148;28;20528;-78
2023/09/18 10:40:21;;;;;;;26.58;19.08;;;20.30;99.90;;;;;;4998701;28;20050;-77
2023/09/18 10:42:47;;;;;;;22.85;18.40;;;20.50;99.90;;;;;;4981476;28;20485;-77
2023/09/18 10:45:15;;;;;;;25.13;17.30;;;20.60;99.90;;;;;;5013865;28;20057;-77
2023/09/18 10:47:45;;;;;;;24.80;17.80;;;20.50;99.90;;;;;;5016379;28;20045;-77
2023/09/18 10:50:11;;;;;;;22.00;16.45;;;20.50;99.90;;;;;;5019279;28;20072;-77
2023/09/18 10:52:46;;;;;;;18.60;14.75;;;20.50;99.90;;;;;;5007609;28;20038;-78
2023/09/18 10:55:13;;;;;;;20.60;14.45;;;20.60;99.90;;;;;;5006506;28;20033;-77
2023/09/18 10:57:53;;;;;;;18.58;14.07;;;20.70;99.90;;;;;;5014042;28;20041;-78
2023/09/18 11:00:22;;;;;;;17.60;14.65;;;20.70;99.90;;;;;;4996055;28;20489;-78
2023/09/18 11:03:11;;;;;;;17.95;13.82;;;20.80;99.90;;;;;;4997693;28;20049;-77
2023/09/18 11:05:36;;;;;;;14.52;12.07;;;20.80;99.90;;;;;;4979890;28;20049;-77
2023/09/18 11:08:45;;;;;;;14.05;11.23;;;20.80;99.90;;;;;;4996166;28;20038;-77
2023/09/18 11:11:16;;;;;;;13.23;10.65;;;20.80;99.90;;;;;;4936241;29;20058;-76
2023/09/18 11:13:45;;;;;;;12.02;9.68;;;20.90;99.90;;;;;;4904780;29;20459;-77
2023/09/18 11:16:26;;;;;;;11.18;9.00;;;20.80;99.90;;;;;;4963704;28;20108;-77
2023/09/18 11:18:58;;;;;;;11.35;9.00;;;20.90;99.90;;;;;;5013555;28;20046;-76
2023/09/18 11:21:29;;;;;;;11.45;7.78;;;21.00;99.90;;;;;;5013824;28;20467;-77
2023/09/18 11:24:05;;;;;;;9.68;7.75;;;20.90;99.90;;;;;;4996893;28;20038;-77
2023/09/18 11:26:36;;;;;;;11.50;7.88;;;20.80;99.90;;;;;;4981626;28;20497;-77
2023/09/18 11:29:08;;;;;;;7.93;7.13;;;20.60;99.90;;;;;;4996491;28;20053;-77
2023/09/18 11:31:56;;;;;;;11.15;6.90;;;20.60;99.90;;;;;;4995294;28;20040;-77
2023/09/18 11:34:30;;;;;;;11.38;7.72;;;20.60;99.90;;;;;;4995444;28;20060;-76
2023/09/18 11:36:57;;;;;;;10.20;8.43;;;20.50;99.90;;;;;;4995626;28;20164;-77
2023/09/18 11:39:40;;;;;;;11.63;8.10;;;20.40;99.90;;;;;;4978924;28;20117;-77
2023/09/18 11:42:18;;;;;;;8.88;7.95;;;20.30;99.90;;;;;;5013191;28;20042;-76
2023/09/18 11:44:47;;;;;;;12.13;9.15;;;20.40;99.90;;;;;;5014472;28;20049;-77
2023/09/18 11:47:21;;;;;;;12.23;7.63;;;20.50;99.90;;;;;;4981857;28;20034;-77
2023/09/18 11:49:56;;;;;;;7.95;7.10;;;20.60;99.90;;;;;;5016047;28;20034;-77
2023/09/18 11:52:29;;;;;;;12.77;7.60;;;20.60;99.90;;;;;;5014726;28;20559;-77
2023/09/18 11:54:59;;;;;;;8.45;6.95;;;20.80;99.90;;;;;;4997696;28;20049;-77
2023/09/18 11:57:28;;;;;;;10.02;7.78;;;20.80;99.90;;;;;;5012768;28;20520;-76
2023/09/18 11:59:55;;;;;;;10.20;7.40;;;20.80;99.90;;;;;;4997097;28;20034;-78
2023/09/18 12:02:45;;;;;;;8.30;7.25;;;20.70;99.90;;;;;;4996369;28;20044;-77
2023/09/18 12:05:18;;;;;;;12.10;6.93;;;20.70;99.90;;;;;;4995973;28;20041;-76
2023/09/18 12:07:45;;;;;;;11.13;6.57;;;20.70;99.90;;;;;;4996546;28;20034;-76
2023/09/18 12:10:14;;;;;;;9.23;6.85;;;20.70;99.90;;;;;;4979581;28;20049;-77
2023/09/18 12:12:42;;;;;;;9.30;6.20;;;20.80;99.90;;;;;;4996425;28;20524;-77
2023/09/18 12:15:11;;;;;;;8.95;7.32;;;20.80;99.90;;;;;;5014262;28;20054;-77
2023/09/18 12:17:36;;;;;;;10.05;7.03;;;20.90;99.90;;;;;;5014732;28;20041;-77
2023/09/18 12:20:04;;;;;;;7.57;6.60;;;20.90;99.90;;;;;;4994722;28;20512;-77
2023/09/18 12:22:31;;;;;;;10.18;6.97;;;20.90;99.90;;;;;;4994848;28;20045;-77
2023/09/18 12:25:09;;;;;;;9.18;6.68;;;21.10;99.90;;;;;;4994280;28;20042;-77
2023/09/18 12:27:39;;;;;;;9.02;7.22;;;21.20;99.90;;;;;;4994341;28;20040;-77
2023/09/18 12:30:05;;;;;;;11.13;6.60;;;21.30;99.90;;;;;;4978476;28;20485;-77
2023/09/18 12:32:32;;;;;;;8.68;6.72;;;21.40;99.90;;;;;;4978067;28;20366;-76